Dati Storici

Data ora Umidita' aria (%) Temperatura aria (°C) Rad globale (W/m²) Gonioanemometro (°) Tacoanemometro (m/s) Pioggia (mm)
13-10-2012 01:20 79.1 % 16.28 3.292 344.043 0.891 0
13-10-2012 01:10 79.3 % 16.327 3.19 1.098 0.493 0
13-10-2012 01:00 79.6 % 16.339 3.305 294.452 0.5 0
13-10-2012 00:50 79.5 % 16.376 3.279 2.571 0.725 0
13-10-2012 00:40 79.8 % 16.477 3.1 355.42 0.614 0
13-10-2012 00:30 79.4 % 16.56 2.907 5.254 0.661 0
13-10-2012 00:20 79.2 % 16.628 2.856 105.708 0.517 0
13-10-2012 00:10 79 % 16.676 2.907 348.868 0.728 0
13-10-2012 00:00 78.8 % 16.76 3.138 235.741 0.567 0
12-10-2012 23:50 78.7 % 16.806 3.113 337.634 1.863 0
12-10-2012 23:40 78.8 % 16.856 3.138 63.999 1.46 0
12-10-2012 23:30 79 % 16.774 3.049 301.932 0.734 0
12-10-2012 23:20 78.8 % 16.816 2.892 262.875 0.852 0
12-10-2012 23:10 78.5 % 16.759 2.892 259.633 0.779 0
12-10-2012 23:00 77.7 % 16.96 3.059 268.477 1.127 0
12-10-2012 22:50 76.9 % 17.09 2.802 258.298 1.274 0
12-10-2012 22:40 76.4 % 17.219 2.956 228.949 0.646 0
12-10-2012 22:30 76.5 % 17.204 2.956 284.164 0.942 0
12-10-2012 22:20 76.4 % 17.215 3.072 243.033 0.258 0
12-10-2012 22:10 77.1 % 17.013 2.867 240.927 0.472 0

I dati sono presentati in modo automatico a scopo informativo. In seguito a verifica i dati possono subire modifiche o essere invalidati e non riportati negli archivi definitivi.